Time;durP1;ratioP1;P1;durP2;ratioP2;P2;SDS_P1;SDS_P2;PMS_P1;PMS_P2;Temp;Humidity;BMP_temperature;BMP_pressure;BME280_temperature;BME280_humidity;BME280_pressure;Samples;Min_cycle;Max_cycle;Signal;HPM_P1;HPM_P2
2022/10/27 00:02:16;;;;;;;19.73;14.90;;;12.30;99.90;;;;;;4937166;29;20201;-84
2022/10/27 00:04:43;;;;;;;23.93;15.90;;;12.30;99.90;;;;;;4937097;29;20199;-85
2022/10/27 00:07:10;;;;;;;20.90;15.13;;;12.30;99.90;;;;;;4936868;29;20201;-83
2022/10/27 00:09:37;;;;;;;22.93;15.83;;;12.20;99.90;;;;;;4936848;29;20196;-85
2022/10/27 00:12:06;;;;;;;24.23;15.50;;;12.10;99.90;;;;;;4936942;29;20200;-83
2022/10/27 00:14:33;;;;;;;30.03;17.07;;;12.00;1.00;;;;;;4936648;29;20209;-85
2022/10/27 00:17:00;;;;;;;25.37;16.57;;;12.00;1.00;;;;;;4935785;29;20195;-84
2022/10/27 00:19:27;;;;;;;28.63;17.80;;;11.90;1.00;;;;;;4936854;29;20204;-84
2022/10/27 00:21:54;;;;;;;29.37;18.70;;;11.80;1.00;;;;;;4936423;29;20204;-84
2022/10/27 00:24:22;;;;;;;36.47;21.20;;;11.80;1.00;;;;;;4936368;29;20208;-84
2022/10/27 00:26:49;;;;;;;35.90;21.97;;;11.70;1.00;;;;;;4936605;29;20271;-83
2022/10/27 00:29:17;;;;;;;37.03;23.33;;;11.60;1.00;;;;;;4936632;29;20231;-84
2022/10/27 00:31:44;;;;;;;28.27;17.77;;;11.60;43.30;;;;;;4936625;29;20226;-85
2022/10/27 00:34:11;;;;;;;26.07;18.10;;;11.50;80.60;;;;;;4936516;29;20239;-83
2022/10/27 00:36:38;;;;;;;32.30;18.70;;;11.50;99.90;;;;;;4935644;29;20656;-82
2022/10/27 00:39:05;;;;;;;29.30;18.37;;;11.40;99.90;;;;;;4936397;29;20208;-85
2022/10/27 00:41:34;;;;;;;28.10;18.60;;;11.30;99.90;;;;;;4936350;29;20200;-85
2022/10/27 00:44:03;;;;;;;39.87;23.53;;;11.30;99.90;;;;;;4935966;29;20263;-83
2022/10/27 00:46:37;;;;;;;53.07;34.97;;;11.30;99.90;;;;;;4935376;29;20283;-83
2022/10/27 00:49:09;;;;;;;40.90;26.90;;;11.20;1.00;;;;;;4936093;29;20186;-83
2022/10/27 00:51:39;;;;;;;33.37;21.40;;;11.20;1.00;;;;;;4936216;29;20200;-85
2022/10/27 00:54:06;;;;;;;36.77;23.20;;;11.10;1.00;;;;;;4935554;29;20202;-82
2022/10/27 00:56:34;;;;;;;34.07;21.13;;;11.10;1.00;;;;;;4935784;29;20566;-83
2022/10/27 00:59:01;;;;;;;31.97;21.17;;;11.00;1.00;;;;;;4936023;29;20264;-83
2022/10/27 01:01:29;;;;;;;34.67;21.00;;;11.00;1.00;;;;;;4935709;29;20567;-84
2022/10/27 01:03:57;;;;;;;28.60;19.53;;;10.90;1.00;;;;;;4936007;29;20221;-85
2022/10/27 01:06:26;;;;;;;34.30;20.03;;;10.90;1.00;;;;;;4935543;29;20775;-85
2022/10/27 01:08:53;;;;;;;30.10;19.13;;;10.90;1.00;;;;;;4935549;29;20709;-82
2022/10/27 01:11:20;;;;;;;30.37;19.00;;;10.90;1.00;;;;;;4935847;29;20203;-84
2022/10/27 01:13:48;;;;;;;32.43;19.67;;;10.80;1.00;;;;;;4935623;29;20196;-84
2022/10/27 01:16:28;;;;;;;27.37;18.87;;;10.80;1.00;;;;;;4935804;29;20598;-85
2022/10/27 01:19:06;;;;;;;33.13;20.10;;;10.70;1.00;;;;;;4935455;29;20191;-84
2022/10/27 01:21:56;;;;;;;29.53;19.00;;;10.70;1.00;;;;;;4935721;29;20710;-85
2022/10/27 01:24:42;;;;;;;32.07;18.73;;;10.70;1.00;;;;;;4935362;29;20199;-85
2022/10/27 01:27:29;;;;;;;30.77;18.60;;;10.70;1.00;;;;;;4935571;29;20224;-83
2022/10/27 01:30:06;;;;;;;30.13;19.03;;;10.60;1.00;;;;;;4933741;29;20203;-83
2022/10/27 01:32:49;;;;;;;31.63;19.23;;;10.60;1.00;;;;;;4935318;29;20183;-84
2022/10/27 01:35:26;;;;;;;30.23;18.97;;;10.60;1.00;;;;;;4935336;29;20722;-85
2022/10/27 01:38:00;;;;;;;28.93;18.63;;;10.60;1.00;;;;;;4935580;28;20284;-83
2022/10/27 01:40:31;;;;;;;29.37;18.87;;;10.50;1.00;;;;;;4935011;29;20606;-83
2022/10/27 01:43:04;;;;;;;35.97;21.40;;;10.50;1.00;;;;;;4935177;29;20627;-84
2022/10/27 01:45:35;;;;;;;40.10;23.93;;;10.50;1.00;;;;;;4935036;29;20389;-83
2022/10/27 01:48:06;;;;;;;39.00;23.23;;;10.40;37.60;;;;;;4935036;29;20194;-84
2022/10/27 01:50:35;;;;;;;37.33;22.27;;;10.40;99.90;;;;;;4935177;29;20194;-83
2022/10/27 01:53:03;;;;;;;38.87;23.90;;;10.40;99.90;;;;;;4935002;29;20202;-84
2022/10/27 01:55:36;;;;;;;38.20;23.47;;;10.40;99.90;;;;;;4934818;29;20571;-85
2022/10/27 01:58:34;;;;;;;35.17;21.03;;;10.40;99.90;;;;;;4934715;29;20271;-83
2022/10/27 02:01:13;;;;;;;37.93;20.80;;;10.30;99.90;;;;;;4931013;29;20206;-84
2022/10/27 02:03:50;;;;;;;45.50;23.57;;;10.30;99.90;;;;;;4935281;29;20190;-84
2022/10/27 02:06:24;;;;;;;33.33;19.73;;;10.30;99.90;;;;;;4935054;29;20205;-84
2022/10/27 02:08:55;;;;;;;38.37;21.03;;;10.30;99.90;;;;;;4934638;29;20192;-83
2022/10/27 02:11:22;;;;;;;39.60;21.97;;;10.30;99.90;;;;;;4934782;28;20644;-83
2022/10/27 02:13:49;;;;;;;43.83;23.90;;;10.20;99.90;;;;;;4935112;29;20201;-83
2022/10/27 02:16:21;;;;;;;42.10;23.80;;;10.20;99.90;;;;;;4935387;29;20205;-84
2022/10/27 02:18:53;;;;;;;45.37;23.23;;;10.20;99.90;;;;;;4934881;29;20631;-83
2022/10/27 02:21:24;;;;;;;39.97;23.17;;;10.20;99.90;;;;;;4934860;29;20185;-84
2022/10/27 02:23:51;;;;;;;42.53;23.20;;;10.20;99.90;;;;;;4935112;29;20242;-85
2022/10/27 02:26:24;;;;;;;37.90;22.33;;;10.20;99.90;;;;;;4934920;29;20220;-84
2022/10/27 02:28:55;;;;;;;40.77;23.13;;;10.20;99.90;;;;;;4934510;29;20245;-85
2022/10/27 02:31:27;;;;;;;36.93;22.17;;;10.20;99.90;;;;;;4935028;29;20198;-84
2022/10/27 02:33:57;;;;;;;40.40;22.43;;;10.20;99.90;;;;;;4934871;29;20186;-84
2022/10/27 02:36:24;;;;;;;39.07;21.93;;;10.20;99.90;;;;;;4934390;29;20199;-86
2022/10/27 02:38:52;;;;;;;39.03;22.40;;;10.20;99.90;;;;;;4934723;29;20197;-83
2022/10/27 02:41:19;;;;;;;46.20;23.00;;;10.20;99.90;;;;;;4935022;29;20203;-85
2022/10/27 02:43:46;;;;;;;39.73;23.10;;;10.20;99.90;;;;;;4935102;29;20196;-83
2022/10/27 02:46:13;;;;;;;37.30;23.23;;;10.20;99.90;;;;;;4934208;29;20692;-86
2022/10/27 02:48:40;;;;;;;43.37;23.87;;;10.20;99.90;;;;;;4934917;29;20265;-84
2022/10/27 02:51:08;;;;;;;37.33;23.33;;;10.20;99.90;;;;;;4934752;29;20248;-83
2022/10/27 02:53:35;;;;;;;47.47;23.50;;;10.20;99.90;;;;;;4934841;29;20248;-84
2022/10/27 02:56:02;;;;;;;41.63;23.10;;;10.20;99.90;;;;;;4934758;29;20260;-83
2022/10/27 02:58:29;;;;;;;37.93;22.07;;;10.20;99.90;;;;;;4934818;29;20241;-85
2022/10/27 03:00:56;;;;;;;49.43;24.13;;;10.20;99.90;;;;;;4934674;29;20272;-86
2022/10/27 03:03:23;;;;;;;40.50;24.57;;;10.20;99.90;;;;;;4934737;29;20261;-84
2022/10/27 03:05:50;;;;;;;41.17;23.27;;;10.20;99.90;;;;;;4934257;29;20281;-84
2022/10/27 03:08:19;;;;;;;47.40;24.07;;;10.20;99.90;;;;;;4934391;29;20606;-84
2022/10/27 03:10:46;;;;;;;44.50;23.70;;;10.20;99.90;;;;;;4935845;29;20212;-85
2022/10/27 03:13:13;;;;;;;41.90;24.23;;;10.20;99.90;;;;;;4938234;29;20257;-86
2022/10/27 03:15:40;;;;;;;60.27;27.40;;;10.20;99.90;;;;;;4937995;29;20262;-84
2022/10/27 03:18:07;;;;;;;47.83;24.07;;;10.20;99.90;;;;;;4937894;29;20201;-85
2022/10/27 03:20:34;;;;;;;50.10;25.67;;;10.20;99.90;;;;;;4937856;29;20198;-85
2022/10/27 03:23:01;;;;;;;62.23;27.43;;;10.20;99.90;;;;;;4937558;29;20200;-86
2022/10/27 03:25:29;;;;;;;52.07;25.60;;;10.20;99.90;;;;;;4936693;29;20586;-85
2022/10/27 03:27:56;;;;;;;63.53;30.03;;;10.20;99.90;;;;;;4937208;29;20204;-85
2022/10/27 03:30:24;;;;;;;52.37;30.13;;;10.20;99.90;;;;;;4937032;29;20193;-83
2022/10/27 03:32:52;;;;;;;51.27;26.20;;;10.10;99.90;;;;;;4937648;29;20205;-83
2022/10/27 03:35:20;;;;;;;127.57;35.10;;;10.10;99.90;;;;;;4937623;29;20236;-85
2022/10/27 03:37:55;;;;;;;108.17;31.90;;;10.10;99.90;;;;;;4937720;29;20202;-85
2022/10/27 03:40:22;;;;;;;189.33;36.27;;;10.10;99.90;;;;;;4937467;29;20185;-84
2022/10/27 03:42:50;;;;;;;141.83;25.60;;;10.10;99.90;;;;;;4937502;29;20254;-85
2022/10/27 03:45:17;;;;;;;167.33;27.80;;;10.00;99.90;;;;;;4937071;29;20190;-85
2022/10/27 03:47:44;;;;;;;267.80;35.77;;;10.00;99.90;;;;;;4937579;29;20268;-85
2022/10/27 03:50:11;;;;;;;274.07;40.27;;;10.00;99.90;;;;;;4937031;29;20254;-83
2022/10/27 03:52:38;;;;;;;210.57;39.07;;;10.00;99.90;;;;;;4936775;29;20731;-85
2022/10/27 03:55:06;;;;;;;94.53;26.73;;;9.90;99.90;;;;;;4937305;29;20201;-84
2022/10/27 03:57:33;;;;;;;114.50;30.43;;;9.90;99.90;;;;;;4937185;29;20208;-86
2022/10/27 04:00:01;;;;;;;102.80;22.97;;;9.90;99.90;;;;;;4936783;29;20199;-85
2022/10/27 04:02:28;;;;;;;98.37;24.10;;;9.90;99.90;;;;;;4936937;29;20185;-85
2022/10/27 04:04:56;;;;;;;185.73;32.43;;;9.80;99.90;;;;;;4936833;29;20248;-83
2022/10/27 04:07:23;;;;;;;155.20;27.27;;;9.80;99.90;;;;;;4936879;29;20234;-85
2022/10/27 04:09:50;;;;;;;124.90;30.33;;;9.80;99.90;;;;;;4936674;29;20254;-85
2022/10/27 04:12:17;;;;;;;192.23;57.43;;;9.80;99.90;;;;;;4937156;29;20204;-84
2022/10/27 04:14:44;;;;;;;106.93;35.20;;;9.80;99.90;;;;;;4937135;29;20623;-84
2022/10/27 04:17:13;;;;;;;89.30;24.07;;;9.80;99.90;;;;;;4936845;29;20282;-84
2022/10/27 04:19:40;;;;;;;76.43;24.43;;;9.80;99.90;;;;;;4936474;29;20535;-82
2022/10/27 04:22:07;;;;;;;57.10;23.37;;;9.70;99.90;;;;;;4936388;29;20251;-84
2022/10/27 04:24:34;;;;;;;62.80;21.67;;;9.80;99.90;;;;;;4936192;29;20189;-85
2022/10/27 04:27:01;;;;;;;93.53;22.13;;;9.80;99.90;;;;;;4936623;29;20224;-85
2022/10/27 04:29:28;;;;;;;93.17;20.63;;;9.70;99.90;;;;;;4940538;29;20244;-83
2022/10/27 04:31:55;;;;;;;73.83;21.30;;;9.70;99.90;;;;;;4955549;28;20255;-83
2022/10/27 04:34:23;;;;;;;82.00;22.50;;;9.70;99.90;;;;;;4935719;29;20243;-83
2022/10/27 04:36:50;;;;;;;152.13;28.83;;;9.60;99.90;;;;;;4936537;29;20196;-83
2022/10/27 04:39:17;;;;;;;104.90;23.10;;;9.60;99.90;;;;;;4936428;29;20204;-85
2022/10/27 04:41:44;;;;;;;96.03;25.67;;;9.60;99.90;;;;;;4936396;29;20245;-83
2022/10/27 04:44:11;;;;;;;106.33;26.30;;;9.60;99.90;;;;;;4936321;29;20208;-84
2022/10/27 04:46:38;;;;;;;78.13;24.57;;;9.60;99.90;;;;;;4935930;29;20232;-84
2022/10/27 04:49:05;;;;;;;64.37;22.93;;;9.70;99.90;;;;;;4936121;29;20190;-83
2022/10/27 04:51:34;;;;;;;69.83;21.57;;;9.70;99.90;;;;;;4935725;29;20201;-83
2022/10/27 04:54:01;;;;;;;62.27;21.40;;;9.70;99.90;;;;;;4936020;29;20198;-84
2022/10/27 04:56:28;;;;;;;71.80;22.53;;;9.70;99.90;;;;;;4936175;29;20262;-83
2022/10/27 04:58:55;;;;;;;75.00;24.43;;;9.70;99.90;;;;;;4935426;29;20667;-84
2022/10/27 05:01:22;;;;;;;78.47;23.33;;;9.70;99.90;;;;;;4936082;29;20249;-86
2022/10/27 05:03:50;;;;;;;85.90;23.47;;;9.70;99.90;;;;;;4935570;29;20212;-84
2022/10/27 05:06:17;;;;;;;95.70;24.43;;;9.70;99.90;;;;;;4935145;29;20192;-85
2022/10/27 05:08:45;;;;;;;79.30;21.63;;;9.70;99.90;;;;;;4935376;29;20193;-85
2022/10/27 05:11:12;;;;;;;100.97;23.50;;;9.70;99.90;;;;;;4935841;29;20291;-84
2022/10/27 05:13:39;;;;;;;93.30;24.47;;;9.60;99.90;;;;;;4936019;29;20257;-85
2022/10/27 05:16:07;;;;;;;109.07;26.97;;;9.60;99.90;;;;;;4935281;29;20193;-88
2022/10/27 05:18:34;;;;;;;93.03;24.60;;;9.60;99.90;;;;;;4935737;29;20204;-84
2022/10/27 05:21:01;;;;;;;95.27;25.53;;;9.60;99.90;;;;;;4935748;29;20210;-86
2022/10/27 05:23:28;;;;;;;80.87;23.73;;;9.60;99.90;;;;;;4935687;29;20204;-84
2022/10/27 05:25:57;;;;;;;74.80;23.83;;;9.50;99.90;;;;;;4935734;29;20287;-84
2022/10/27 05:28:24;;;;;;;116.60;28.93;;;9.50;99.90;;;;;;4935514;29;20275;-84
2022/10/27 05:30:55;;;;;;;107.10;26.17;;;9.60;99.90;;;;;;4935423;29;20259;-84
2022/10/27 05:33:22;;;;;;;139.23;27.23;;;9.50;99.90;;;;;;4934970;29;20276;-84
2022/10/27 05:35:49;;;;;;;160.07;29.87;;;9.60;99.90;;;;;;4935388;29;20290;-85
2022/10/27 05:38:17;;;;;;;249.13;35.23;;;9.60;99.90;;;;;;4935380;29;20603;-86
2022/10/27 05:40:44;;;;;;;226.23;32.87;;;9.60;99.90;;;;;;4935396;29;20195;-84
2022/10/27 05:43:12;;;;;;;213.63;34.13;;;9.60;99.90;;;;;;4935507;29;20208;-85
2022/10/27 05:45:39;;;;;;;174.67;29.50;;;9.60;99.90;;;;;;4935328;29;20256;-84
2022/10/27 05:48:09;;;;;;;200.40;34.70;;;9.70;99.90;;;;;;4935363;29;20220;-83
2022/10/27 05:50:36;;;;;;;156.43;30.37;;;9.70;99.90;;;;;;4935056;29;20207;-88
2022/10/27 05:53:03;;;;;;;169.23;36.93;;;9.70;99.90;;;;;;4935244;29;20200;-85
2022/10/27 05:55:30;;;;;;;201.90;37.40;;;9.70;99.90;;;;;;4934917;29;20251;-86
2022/10/27 05:58:00;;;;;;;114.57;31.07;;;9.70;52.60;;;;;;4953327;28;20180;-87
2022/10/27 06:00:32;;;;;;;109.77;31.03;;;9.70;1.00;;;;;;4960669;28;20191;-88
2022/10/27 06:03:19;;;;;;;94.07;33.53;;;9.60;1.00;;;;;;4960503;28;20180;-87
2022/10/27 06:08:35;;;;;;;82.57;30.70;;;9.60;1.00;;;;;;4960177;28;20232;-88
2022/10/27 06:11:03;;;;;;;73.60;27.67;;;9.60;1.00;;;;;;4960535;28;20163;-87
2022/10/27 06:13:32;;;;;;;55.80;26.13;;;9.70;1.00;;;;;;4960335;28;20184;-89
2022/10/27 06:16:04;;;;;;;67.43;28.17;;;9.70;1.00;;;;;;4960232;28;20181;-90
2022/10/27 06:18:34;;;;;;;51.93;25.30;;;9.60;1.00;;;;;;4960421;28;20183;-87
2022/10/27 06:21:03;;;;;;;60.37;26.57;;;9.60;1.00;;;;;;4960507;28;20208;-88
2022/10/27 06:23:33;;;;;;;75.07;26.60;;;9.70;1.00;;;;;;4960317;28;20206;-88
2022/10/27 06:26:05;;;;;;;74.23;27.37;;;9.70;1.00;;;;;;4960370;28;20260;-87
2022/10/27 06:28:37;;;;;;;76.47;26.07;;;9.70;1.00;;;;;;4960180;28;20239;-88
2022/10/27 06:31:10;;;;;;;87.77;26.47;;;9.70;1.00;;;;;;4960309;28;20193;-86
2022/10/27 06:33:41;;;;;;;57.43;22.73;;;9.80;1.00;;;;;;4960475;28;20246;-88
2022/10/27 06:36:10;;;;;;;96.97;26.30;;;9.80;1.00;;;;;;4960064;28;20237;-89
2022/10/27 06:38:46;;;;;;;76.23;23.13;;;9.90;1.00;;;;;;4960171;28;20199;-88
2022/10/27 06:41:17;;;;;;;63.57;22.70;;;9.90;1.00;;;;;;4960377;28;20258;-88
2022/10/27 06:43:47;;;;;;;80.27;25.57;;;10.00;1.00;;;;;;4960275;28;20206;-87
2022/10/27 06:46:24;;;;;;;75.10;24.67;;;10.10;1.00;;;;;;4962127;28;20195;-86
2022/10/27 06:48:59;;;;;;;93.13;27.13;;;10.10;1.00;;;;;;4963525;28;20235;-88
2022/10/27 06:51:31;;;;;;;85.27;26.47;;;10.10;1.00;;;;;;4963564;28;20253;-87
2022/10/27 06:54:04;;;;;;;68.67;25.17;;;10.10;1.00;;;;;;4963582;28;20214;-87
2022/10/27 06:56:33;;;;;;;63.53;25.03;;;10.20;1.00;;;;;;4963675;28;20252;-89
2022/10/27 06:59:07;;;;;;;60.23;27.43;;;10.30;1.00;;;;;;4963526;28;20194;-85
2022/10/27 07:01:47;;;;;;;52.47;23.87;;;10.40;1.00;;;;;;4963489;28;20183;-87
2022/10/27 07:04:15;;;;;;;52.63;24.53;;;10.40;1.00;;;;;;4963655;28;20188;-86
2022/10/27 07:06:56;;;;;;;51.77;23.53;;;10.50;99.90;;;;;;4963608;28;20209;-88
2022/10/27 07:09:23;;;;;;;62.27;23.67;;;10.60;99.90;;;;;;4963422;28;20233;-88
2022/10/27 07:11:54;;;;;;;61.47;23.07;;;10.70;99.90;;;;;;4963463;28;20190;-88
2022/10/27 07:14:22;;;;;;;66.33;24.13;;;10.70;99.90;;;;;;4963259;28;20185;-86
2022/10/27 07:16:58;;;;;;;61.33;22.87;;;10.70;99.90;;;;;;4963504;28;20198;-87
2022/10/27 07:19:31;;;;;;;63.77;22.97;;;10.80;99.90;;;;;;4963280;28;20205;-88
2022/10/27 07:22:08;;;;;;;69.00;22.63;;;10.90;99.90;;;;;;4963303;28;20195;-90
2022/10/27 07:24:38;;;;;;;46.40;20.50;;;10.90;99.90;;;;;;4963353;28;20197;-85
2022/10/27 07:27:10;;;;;;;58.03;21.90;;;11.00;72.50;;;;;;4963009;28;20265;-86
2022/10/27 07:29:41;;;;;;;61.43;23.27;;;11.10;19.30;;;;;;4962805;28;20182;-89
2022/10/27 07:32:27;;;;;;;58.27;22.23;;;11.20;1.00;;;;;;4963192;28;20175;-88
2022/10/27 07:34:55;;;;;;;67.50;26.43;;;11.20;1.00;;;;;;4962964;28;20213;-88
2022/10/27 07:37:25;;;;;;;59.87;23.80;;;11.30;1.00;;;;;;4963144;28;20175;-87
2022/10/27 07:39:58;;;;;;;65.37;30.50;;;11.40;1.00;;;;;;4963115;28;20203;-87
2022/10/27 07:42:40;;;;;;;57.07;25.60;;;11.60;1.00;;;;;;4962816;28;20196;-88
2022/10/27 07:45:11;;;;;;;78.60;35.40;;;11.60;1.00;;;;;;4963036;28;20205;-88
2022/10/27 07:47:56;;;;;;;57.63;27.83;;;11.70;1.00;;;;;;4962758;28;20237;-87
2022/10/27 07:50:38;;;;;;;48.87;22.80;;;11.80;1.00;;;;;;4962848;28;20188;-90
2022/10/27 07:53:07;;;;;;;53.13;22.07;;;11.90;1.00;;;;;;4962560;28;20193;-89
2022/10/27 07:55:38;;;;;;;58.70;24.00;;;12.10;1.00;;;;;;4962521;28;20188;-89
2022/10/27 07:58:22;;;;;;;64.33;26.80;;;12.20;99.90;;;;;;4962108;28;20261;-91
2022/10/27 08:00:58;;;;;;;60.43;20.07;;;12.20;99.90;;;;;;4962344;28;20213;-89
2022/10/27 08:03:31;;;;;;;66.77;19.33;;;12.30;99.90;;;;;;4962604;28;20181;-92
2022/10/27 08:06:04;;;;;;;65.47;20.33;;;12.40;99.90;;;;;;4962282;28;20170;-87
2022/10/27 08:08:38;;;;;;;89.53;21.10;;;12.60;99.90;;;;;;4962420;28;20198;-89
2022/10/27 08:11:18;;;;;;;73.93;26.27;;;12.80;99.90;;;;;;4962406;28;20178;-88
2022/10/27 08:13:52;;;;;;;90.90;25.87;;;13.00;38.10;;;;;;4962314;28;20207;-88
2022/10/27 08:16:28;;;;;;;88.83;21.00;;;13.20;1.00;;;;;;4962594;28;20253;-89
2022/10/27 08:18:58;;;;;;;76.13;21.00;;;13.40;99.90;;;;;;4962223;28;20222;-89
2022/10/27 08:21:46;;;;;;;81.43;23.50;;;13.60;1.00;;;;;;4962328;28;20196;-86
2022/10/27 08:24:17;;;;;;;71.93;24.83;;;13.80;1.00;;;;;;4962173;28;20200;-88
2022/10/27 08:26:47;;;;;;;72.13;21.10;;;14.00;1.00;;;;;;4961942;28;20185;-89
2022/10/27 08:29:18;;;;;;;96.00;21.07;;;14.10;1.00;;;;;;4961678;28;20213;-89
2022/10/27 08:31:54;;;;;;;46.07;19.80;;;14.30;99.90;;;;;;4961879;28;20211;-87
2022/10/27 08:34:26;;;;;;;57.93;25.53;;;14.40;99.90;;;;;;4961644;28;20222;-89
2022/10/27 08:36:57;;;;;;;91.20;25.40;;;14.60;99.90;;;;;;4961947;28;20218;-89
2022/10/27 08:39:25;;;;;;;67.40;24.90;;;14.70;1.00;;;;;;4961904;28;20181;-90
2022/10/27 08:42:11;;;;;;;99.13;24.93;;;14.70;99.90;;;;;;4961644;28;20195;-87
2022/10/27 08:44:51;;;;;;;79.63;22.10;;;14.70;99.90;;;;;;4961629;28;20185;-87
2022/10/27 08:47:36;;;;;;;78.20;20.80;;;14.70;99.90;;;;;;4961621;28;20189;-88
2022/10/27 08:50:11;;;;;;;80.00;22.23;;;14.90;99.90;;;;;;4961515;28;20178;-87
2022/10/27 08:52:44;;;;;;;69.70;21.50;;;15.00;1.00;;;;;;4961656;28;20191;-88
2022/10/27 08:55:23;;;;;;;101.30;23.83;;;15.10;1.00;;;;;;4961378;28;20184;-90
2022/10/27 08:58:19;;;;;;;107.13;22.10;;;15.20;1.00;;;;;;4961466;28;20174;-89
2022/10/27 09:00:55;;;;;;;74.00;22.63;;;15.30;99.90;;;;;;4961377;28;20202;-86
2022/10/27 09:03:45;;;;;;;50.33;20.80;;;15.40;99.90;;;;;;4961279;28;20182;-89
2022/10/27 09:06:21;;;;;;;47.38;21.08;;;15.40;99.90;;;;;;4961283;28;20190;-88
2022/10/27 09:09:28;;;;;;;64.95;20.98;;;15.50;1.00;;;;;;4960396;28;20226;-88
2022/10/27 09:12:11;;;;;;;58.67;22.05;;;15.60;1.00;;;;;;4961395;28;20225;-87
2022/10/27 09:15:19;;;;;;;43.33;22.02;;;15.60;1.00;;;;;;4961449;28;20208;-88
2022/10/27 09:17:58;;;;;;;37.95;21.88;;;15.60;1.00;;;;;;4961049;28;20267;-88
2022/10/27 09:20:31;;;;;;;63.47;25.13;;;15.70;1.00;;;;;;4961101;28;20182;-86
2022/10/27 09:23:02;;;;;;;51.00;25.80;;;15.80;1.00;;;;;;4961115;28;20204;-89
2022/10/27 09:25:43;;;;;;;50.50;26.77;;;15.90;1.00;;;;;;4960983;28;20199;-87
2022/10/27 09:28:25;;;;;;;48.50;26.00;;;16.00;1.00;;;;;;4960973;28;20218;-91
2022/10/27 09:31:05;;;;;;;36.40;21.65;;;16.20;99.90;;;;;;4960992;28;20185;-89
2022/10/27 09:33:54;;;;;;;40.25;25.52;;;16.30;99.90;;;;;;4960854;28;20191;-89
2022/10/27 09:36:23;;;;;;;40.22;22.58;;;16.30;99.90;;;;;;4960475;28;20327;-89
2022/10/27 09:39:00;;;;;;;37.20;23.25;;;16.60;99.90;;;;;;4960552;28;20195;-86
2022/10/27 09:41:31;;;;;;;31.98;22.92;;;16.60;1.00;;;;;;4960580;28;20204;-87
2022/10/27 09:44:17;;;;;;;31.65;21.90;;;16.70;6.40;;;;;;4960580;28;20180;-90
2022/10/27 09:46:52;;;;;;;28.50;20.30;;;16.90;1.00;;;;;;4959862;28;20192;-85
2022/10/27 09:49:31;;;;;;;28.67;20.63;;;16.90;1.00;;;;;;4947049;29;20212;-88
2022/10/27 09:52:08;;;;;;;28.80;20.38;;;16.90;1.00;;;;;;4960576;28;20192;-89
2022/10/27 09:54:43;;;;;;;35.42;20.33;;;16.80;1.00;;;;;;4960494;28;20180;-87
2022/10/27 09:57:25;;;;;;;29.73;20.08;;;16.70;1.00;;;;;;4960470;28;20208;-86
2022/10/27 10:00:03;;;;;;;36.88;20.10;;;16.70;1.00;;;;;;4960431;28;20201;-89
2022/10/27 10:02:36;;;;;;;26.38;18.83;;;16.60;1.00;;;;;;4960349;28;20209;-89
2022/10/27 10:05:29;;;;;;;37.63;22.20;;;16.60;99.90;;;;;;4960346;28;20201;-91
2022/10/27 10:08:15;;;;;;;24.33;19.00;;;16.60;99.90;;;;;;4960373;28;20189;-86
2022/10/27 10:10:59;;;;;;;28.02;18.40;;;16.60;99.90;;;;;;4960436;28;20196;-86
2022/10/27 10:13:28;;;;;;;23.63;17.45;;;16.70;99.90;;;;;;4960592;28;20189;-87
2022/10/27 10:16:09;;;;;;;30.58;19.55;;;16.70;98.70;;;;;;4960291;28;20192;-86
2022/10/27 10:18:57;;;;;;;23.42;19.02;;;16.70;99.90;;;;;;4960375;28;20181;-87
2022/10/27 10:24:27;;;;;;;26.55;17.40;;;16.90;53.70;;;;;;4962295;28;20211;-88
2022/10/27 10:26:59;;;;;;;23.80;17.65;;;17.00;1.00;;;;;;4964107;28;20556;-87
2022/10/27 10:32:17;;;;;;;24.63;14.95;;;17.20;1.00;;;;;;4963757;28;20209;-87
2022/10/27 10:34:44;;;;;;;21.08;15.27;;;17.20;1.00;;;;;;4963941;28;20207;-88
2022/10/27 10:37:33;;;;;;;21.98;16.33;;;17.30;1.00;;;;;;4963886;28;20185;-87
2022/10/27 10:40:30;;;;;;;28.92;18.40;;;17.40;1.00;;;;;;4963833;28;20184;-88
2022/10/27 10:43:15;;;;;;;28.33;19.35;;;17.60;99.90;;;;;;4964012;28;20269;-84
2022/10/27 10:46:10;;;;;;;26.77;21.13;;;17.70;1.00;;;;;;4963796;28;20208;-88
2022/10/27 10:48:45;;;;;;;25.10;18.35;;;17.70;1.00;;;;;;4951853;28;20232;-90
2022/10/27 10:51:13;;;;;;;22.85;17.75;;;17.80;99.90;;;;;;4938425;29;20200;-85
2022/10/27 10:53:47;;;;;;;28.60;17.98;;;17.80;99.90;;;;;;4938412;29;20205;-90
2022/10/27 10:56:24;;;;;;;20.35;17.02;;;17.80;54.40;;;;;;4937885;29;20249;-84
2022/10/27 10:59:02;;;;;;;19.25;15.55;;;17.80;1.00;;;;;;4937908;29;20192;-83
2022/10/27 11:01:40;;;;;;;41.03;18.02;;;17.70;1.00;;;;;;4938403;29;20213;-85
2022/10/27 11:04:09;;;;;;;22.15;17.30;;;17.70;1.00;;;;;;4938798;29;20189;-86
2022/10/27 11:06:37;;;;;;;24.95;17.50;;;17.70;1.00;;;;;;4938819;29;20193;-83
2022/10/27 11:09:05;;;;;;;23.45;17.52;;;17.60;1.00;;;;;;4939292;29;20275;-86
2022/10/27 11:11:39;;;;;;;26.70;20.42;;;17.50;1.00;;;;;;4937957;29;20206;-82
2022/10/27 11:14:13;;;;;;;27.00;19.23;;;17.50;1.00;;;;;;4939696;29;20236;-86
2022/10/27 11:16:46;;;;;;;26.05;19.75;;;17.50;1.00;;;;;;4937824;29;20252;-84
2022/10/27 11:19:14;;;;;;;26.42;19.02;;;17.50;1.00;;;;;;4937817;29;20189;-82
2022/10/27 11:21:47;;;;;;;26.38;19.25;;;17.60;1.00;;;;;;4937468;29;20284;-84
2022/10/27 11:24:18;;;;;;;22.73;19.00;;;17.60;1.00;;;;;;4937951;29;20185;-88
2022/10/27 11:26:54;;;;;;;27.13;19.30;;;17.70;1.00;;;;;;4937814;29;20189;-86
2022/10/27 11:29:27;;;;;;;29.05;18.98;;;17.70;1.00;;;;;;4937672;29;20264;-85
2022/10/27 11:32:02;;;;;;;25.15;18.50;;;17.80;1.00;;;;;;4936982;29;20222;-84
2022/10/27 11:34:39;;;;;;;28.67;22.58;;;18.00;1.00;;;;;;4937374;29;20236;-84
2022/10/27 11:37:10;;;;;;;26.73;19.33;;;18.10;1.00;;;;;;4937687;29;20567;-89
2022/10/27 11:39:52;;;;;;;24.23;19.20;;;18.20;1.00;;;;;;4943758;28;20173;-86
2022/10/27 11:42:30;;;;;;;24.60;17.60;;;18.30;1.00;;;;;;4962497;28;20269;-88
2022/10/27 11:45:22;;;;;;;22.75;16.63;;;18.50;1.00;;;;;;4962602;28;20201;-89
2022/10/27 11:47:57;;;;;;;22.80;16.75;;;18.70;1.00;;;;;;4954602;28;20208;-86
2022/10/27 11:50:27;;;;;;;22.70;15.75;;;18.70;1.00;;;;;;4936855;28;20619;-84
2022/10/27 11:52:57;;;;;;;21.60;15.70;;;18.80;99.90;;;;;;4937357;29;20209;-84
2022/10/27 11:55:29;;;;;;;21.50;14.77;;;18.90;99.90;;;;;;4936913;29;20205;-83
2022/10/27 11:58:05;;;;;;;21.88;15.45;;;18.90;99.90;;;;;;4938398;29;20185;-85
2022/10/27 12:00:44;;;;;;;25.92;18.15;;;19.00;99.90;;;;;;4936866;29;20290;-86
2022/10/27 12:03:32;;;;;;;19.67;13.95;;;19.00;99.90;;;;;;4937045;28;20300;-83
2022/10/27 12:06:05;;;;;;;17.58;13.73;;;19.00;99.90;;;;;;4937009;29;20288;-85
2022/10/27 12:08:44;;;;;;;16.38;13.32;;;19.00;99.90;;;;;;4936901;29;20213;-85
2022/10/27 12:11:24;;;;;;;21.45;14.38;;;19.10;99.90;;;;;;4936368;29;20203;-85
2022/10/27 12:13:59;;;;;;;42.45;14.38;;;19.30;99.90;;;;;;4938564;29;20185;-83
2022/10/27 12:16:34;;;;;;;21.42;13.60;;;19.40;68.40;;;;;;4938608;29;20601;-82
2022/10/27 12:19:08;;;;;;;18.10;13.10;;;19.50;1.00;;;;;;4937077;29;20691;-86
2022/10/27 12:21:42;;;;;;;15.95;9.48;;;19.50;1.00;;;;;;4936777;28;20216;-86
2022/10/27 12:24:16;;;;;;;14.50;9.88;;;19.50;1.00;;;;;;4936503;29;20185;-87
2022/10/27 12:26:48;;;;;;;17.25;9.10;;;19.60;1.00;;;;;;4936744;29;20211;-84
2022/10/27 12:29:17;;;;;;;16.20;10.35;;;19.70;1.00;;;;;;4936479;29;20578;-86
2022/10/27 12:31:53;;;;;;;13.45;10.23;;;19.60;1.00;;;;;;4936217;28;20213;-86
2022/10/27 12:34:22;;;;;;;16.05;10.80;;;19.60;1.00;;;;;;4936307;29;20241;-85
2022/10/27 12:36:56;;;;;;;18.17;10.55;;;19.50;1.00;;;;;;4936496;29;20599;-84
2022/10/27 12:39:28;;;;;;;20.52;11.20;;;19.50;1.00;;;;;;4936517;29;20189;-84
2022/10/27 12:42:03;;;;;;;23.33;11.73;;;19.50;1.00;;;;;;4936285;29;20252;-87
2022/10/27 12:44:39;;;;;;;15.02;11.18;;;19.40;1.00;;;;;;4935734;28;20197;-86
2022/10/27 12:47:26;;;;;;;24.60;13.77;;;19.30;1.00;;;;;;4936116;28;20210;-85
2022/10/27 12:50:09;;;;;;;16.40;10.40;;;19.20;1.00;;;;;;4935771;29;20256;-86
2022/10/27 12:52:42;;;;;;;14.20;10.48;;;19.30;1.00;;;;;;4935819;29;20185;-87
2022/10/27 12:55:26;;;;;;;16.30;10.25;;;19.30;1.00;;;;;;4936025;29;20190;-85
2022/10/27 12:58:01;;;;;;;24.50;11.43;;;19.20;1.00;;;;;;4942351;29;20592;-87
2022/10/27 13:00:40;;;;;;;17.80;10.60;;;19.10;1.00;;;;;;4935657;29;20192;-84
2022/10/27 13:03:42;;;;;;;13.40;9.63;;;19.00;1.00;;;;;;4934287;29;20711;-87
2022/10/27 13:06:16;;;;;;;14.95;9.32;;;18.90;1.00;;;;;;4916949;29;20248;-85
2022/10/27 13:09:28;;;;;;;12.35;8.85;;;18.90;1.00;;;;;;4931892;29;20231;-85
2022/10/27 13:12:14;;;;;;;12.45;8.60;;;18.80;1.00;;;;;;4934745;29;20239;-86